Time;durP1;ratioP1;P1;durP2;ratioP2;P2;SDS_P1;SDS_P2;PMS_P1;PMS_P2;Temp;Humidity;BMP_temperature;BMP_pressure;BME280_temperature;BME280_humidity;BME280_pressure;Samples;Min_cycle;Max_cycle;Signal;HPM_P1;HPM_P2
2023/05/09 00:01:30;;;;;;;13.20;7.03;;;;;;;;;;5085194;28;20039;-71
2023/05/09 00:03:57;;;;;;;15.38;7.45;;;;;;;;;;5083174;28;20036;-71
2023/05/09 00:06:22;;;;;;;13.23;7.40;;;;;;;;;;5076942;28;20030;-71
2023/05/09 00:08:48;;;;;;;13.48;7.10;;;;;;;;;;5085588;28;20023;-71
2023/05/09 00:11:13;;;;;;;12.45;6.80;;;;;;;;;;5084620;28;20028;-71
2023/05/09 00:13:39;;;;;;;14.63;6.72;;;;;;;;;;5084330;28;20580;-71
2023/05/09 00:16:04;;;;;;;14.15;6.70;;;;;;;;;;5084629;28;20032;-71
2023/05/09 00:18:30;;;;;;;16.55;6.57;;;;;;;;;;5084206;28;20040;-71
2023/05/09 00:20:56;;;;;;;12.68;6.95;;;;;;;;;;5075088;28;20538;-71
2023/05/09 00:23:22;;;;;;;13.35;6.68;;;;;;;;;;5085713;28;20528;-71
2023/05/09 00:25:47;;;;;;;13.73;6.57;;;;;;;;;;5077099;28;20044;-71
2023/05/09 00:28:12;;;;;;;11.55;6.15;;;;;;;;;;5077978;28;20509;-71
2023/05/09 00:30:38;;;;;;;12.50;6.85;;;;;;;;;;5078437;28;20474;-71
2023/05/09 00:33:03;;;;;;;18.20;7.38;;;;;;;;;;5085136;28;20027;-71
2023/05/09 00:35:30;;;;;;;15.50;6.55;;;;;;;;;;5083833;28;20531;-70
2023/05/09 00:37:55;;;;;;;13.35;6.75;;;;;;;;;;5084869;28;20035;-71
2023/05/09 00:40:20;;;;;;;11.95;6.65;;;;;;;;;;5085037;28;20028;-71
2023/05/09 00:42:46;;;;;;;17.48;7.10;;;;;;;;;;5072519;28;20032;-71
2023/05/09 00:45:11;;;;;;;18.75;7.40;;;;;;;;;;5084759;28;20734;-71
2023/05/09 00:47:37;;;;;;;15.10;7.05;;;;;;;;;;5085000;28;20028;-71
2023/05/09 00:50:03;;;;;;;17.75;7.65;;;;;;;;;;5084911;28;20032;-71
2023/05/09 00:52:29;;;;;;;15.10;7.05;;;;;;;;;;5083967;28;20074;-71
2023/05/09 00:54:55;;;;;;;13.88;7.32;;;;;;;;;;5084956;28;20028;-71
2023/05/09 00:57:21;;;;;;;16.52;7.53;;;;;;;;;;5083342;28;20024;-71
2023/05/09 00:59:47;;;;;;;14.30;7.35;;;;;;;;;;5082112;28;20050;-71
2023/05/09 01:02:14;;;;;;;17.52;7.88;;;;;;;;;;5082401;28;20040;-70
2023/05/09 01:04:40;;;;;;;16.25;7.80;;;;;;;;;;5091375;28;20050;-71
2023/05/09 01:07:14;;;;;;;15.23;7.90;;;;;;;;;;5088281;28;20036;-71
2023/05/09 01:09:54;;;;;;;19.67;8.40;;;;;;;;;;5084494;28;20044;-71
2023/05/09 01:12:44;;;;;;;16.30;7.22;;;;;;;;;;5082150;28;20099;-71
2023/05/09 01:15:32;;;;;;;18.17;8.00;;;;;;;;;;5084885;28;20031;-71
2023/05/09 01:17:58;;;;;;;14.30;6.35;;;;;;;;;;5079041;28;20028;-71
2023/05/09 01:20:44;;;;;;;16.17;6.65;;;;;;;;;;5077015;28;20076;-71
2023/05/09 01:23:43;;;;;;;12.18;7.05;;;;;;;;;;5084242;28;20521;-71
2023/05/09 01:26:11;;;;;;;13.80;7.05;;;;;;;;;;5084787;28;20064;-71
2023/05/09 01:29:10;;;;;;;13.55;6.65;;;;;;;;;;5084190;28;20036;-71
2023/05/09 01:31:40;;;;;;;11.63;6.35;;;;;;;;;;5083490;28;20040;-71
2023/05/09 01:34:08;;;;;;;14.25;6.97;;;;;;;;;;5084755;28;20038;-71
2023/05/09 01:36:36;;;;;;;15.10;7.05;;;;;;;;;;5081563;28;20090;-71
2023/05/09 01:39:04;;;;;;;16.23;7.47;;;;;;;;;;5082936;28;20032;-71
2023/05/09 01:41:33;;;;;;;13.27;6.63;;;;;;;;;;5079061;28;20059;-70
2023/05/09 01:44:01;;;;;;;13.25;7.18;;;;;;;;;;5084297;28;20032;-71
2023/05/09 01:46:27;;;;;;;17.85;8.18;;;;;;;;;;5083754;28;20089;-71
2023/05/09 01:48:53;;;;;;;15.00;7.72;;;;;;;;;;5084380;28;20031;-71
2023/05/09 01:51:20;;;;;;;16.83;7.97;;;;;;;;;;5081574;28;20033;-71
2023/05/09 01:53:47;;;;;;;19.08;8.25;;;;;;;;;;5078157;28;20028;-71
2023/05/09 01:56:14;;;;;;;18.33;8.35;;;;;;;;;;5083501;28;20070;-71
2023/05/09 01:58:41;;;;;;;19.90;8.13;;;;;;;;;;5083966;28;20095;-71
2023/05/09 02:01:07;;;;;;;17.05;7.88;;;;;;;;;;5083230;28;20040;-71
2023/05/09 02:03:33;;;;;;;14.48;7.53;;;;;;;;;;5084553;28;20028;-71
2023/05/09 02:06:02;;;;;;;15.70;7.78;;;;;;;;;;5082216;28;20038;-71
2023/05/09 02:08:28;;;;;;;13.20;7.35;;;;;;;;;;5084334;28;20039;-71
2023/05/09 02:10:53;;;;;;;12.13;6.20;;;;;;;;;;5085018;28;20032;-71
2023/05/09 02:13:18;;;;;;;16.70;7.47;;;;;;;;;;5087958;28;20047;-71
2023/05/09 02:15:45;;;;;;;13.32;6.20;;;;;;;;;;5087465;28;20567;-70
2023/05/09 02:18:11;;;;;;;19.45;7.65;;;;;;;;;;5078018;28;20081;-71
2023/05/09 02:20:37;;;;;;;10.55;5.95;;;;;;;;;;5078864;28;20063;-71
2023/05/09 02:23:02;;;;;;;12.80;6.95;;;;;;;;;;5085975;28;20075;-71
2023/05/09 02:25:29;;;;;;;15.55;6.75;;;;;;;;;;5087075;28;20051;-70
2023/05/09 02:27:57;;;;;;;10.25;6.07;;;;;;;;;;5092814;28;20032;-71
2023/05/09 02:30:24;;;;;;;13.85;6.95;;;;;;;;;;5095884;28;20055;-71
2023/05/09 02:32:57;;;;;;;12.52;6.38;;;;;;;;;;5080029;28;20027;-71
2023/05/09 02:35:24;;;;;;;14.02;7.05;;;;;;;;;;5087401;28;20043;-71
2023/05/09 02:37:51;;;;;;;11.73;6.45;;;;;;;;;;5082271;28;20035;-71
2023/05/09 02:40:18;;;;;;;11.82;7.03;;;;;;;;;;5083426;28;20700;-71
2023/05/09 02:42:43;;;;;;;12.95;6.88;;;;;;;;;;5073945;28;20131;-71
2023/05/09 02:45:09;;;;;;;13.70;7.05;;;;;;;;;;5085839;28;20110;-71
2023/05/09 02:47:35;;;;;;;12.75;6.55;;;;;;;;;;5086164;28;20055;-71
2023/05/09 02:50:01;;;;;;;10.40;5.95;;;;;;;;;;5085090;28;20496;-71
2023/05/09 02:52:26;;;;;;;13.32;6.47;;;;;;;;;;5086050;28;20028;-71
2023/05/09 02:54:51;;;;;;;14.52;6.70;;;;;;;;;;5085615;28;20480;-71
2023/05/09 02:57:17;;;;;;;12.68;6.60;;;;;;;;;;5082221;28;20059;-71
2023/05/09 02:59:42;;;;;;;13.38;6.47;;;;;;;;;;5075149;28;20509;-71
2023/05/09 03:02:09;;;;;;;14.88;6.90;;;;;;;;;;5085871;28;20047;-71
2023/05/09 03:04:34;;;;;;;12.50;6.28;;;;;;;;;;5085073;28;20032;-71
2023/05/09 03:07:00;;;;;;;10.65;6.03;;;;;;;;;;5085596;28;20467;-71
2023/05/09 03:09:25;;;;;;;12.57;6.50;;;;;;;;;;5086617;28;20019;-71
2023/05/09 03:11:51;;;;;;;11.93;6.72;;;;;;;;;;5085839;28;20024;-71
2023/05/09 03:14:17;;;;;;;14.68;6.90;;;;;;;;;;5084076;28;20036;-71
2023/05/09 03:16:42;;;;;;;12.15;6.70;;;;;;;;;;5084468;28;20127;-71
2023/05/09 03:19:07;;;;;;;12.95;6.68;;;;;;;;;;5084815;28;20118;-71
2023/05/09 03:21:33;;;;;;;15.05;6.10;;;;;;;;;;5084313;28;20040;-71
2023/05/09 03:23:58;;;;;;;11.32;6.00;;;;;;;;;;5086703;28;20024;-71
2023/05/09 03:26:25;;;;;;;10.90;5.95;;;;;;;;;;5084733;28;20028;-71
2023/05/09 03:28:50;;;;;;;15.02;7.20;;;;;;;;;;5076779;28;20028;-71
2023/05/09 03:31:16;;;;;;;12.30;7.10;;;;;;;;;;5083861;28;20104;-71
2023/05/09 03:33:41;;;;;;;12.95;6.57;;;;;;;;;;5080485;28;20052;-71
2023/05/09 03:36:07;;;;;;;14.02;6.88;;;;;;;;;;5085119;28;20031;-71
2023/05/09 03:38:32;;;;;;;11.93;7.07;;;;;;;;;;5085803;28;20036;-71
2023/05/09 03:40:58;;;;;;;12.65;7.20;;;;;;;;;;5084507;28;20480;-71
2023/05/09 03:43:23;;;;;;;11.73;6.70;;;;;;;;;;5080408;28;20055;-71
2023/05/09 03:45:48;;;;;;;11.98;6.35;;;;;;;;;;5084495;28;20111;-71
2023/05/09 03:48:15;;;;;;;13.25;6.72;;;;;;;;;;5085784;28;20012;-71
2023/05/09 03:50:40;;;;;;;11.27;6.65;;;;;;;;;;5089231;28;20048;-71
2023/05/09 03:53:05;;;;;;;11.27;5.85;;;;;;;;;;5090917;28;20602;-71
2023/05/09 03:55:31;;;;;;;12.95;6.80;;;;;;;;;;5088373;28;20028;-71
2023/05/09 03:57:56;;;;;;;14.35;6.85;;;;;;;;;;5080750;28;20035;-71
2023/05/09 04:00:22;;;;;;;11.32;6.60;;;;;;;;;;5085387;28;20072;-71
2023/05/09 04:02:48;;;;;;;13.35;7.00;;;;;;;;;;5082976;28;20116;-71
2023/05/09 04:05:14;;;;;;;17.05;7.20;;;;;;;;;;5079877;28;20036;-71
2023/05/09 04:07:40;;;;;;;12.25;6.57;;;;;;;;;;5084371;28;20105;-71
2023/05/09 04:10:06;;;;;;;13.68;6.80;;;;;;;;;;5082002;28;20085;-71
2023/05/09 04:12:31;;;;;;;13.43;7.03;;;;;;;;;;5076885;28;20129;-71
2023/05/09 04:14:57;;;;;;;13.93;6.90;;;;;;;;;;5080684;28;20070;-71
2023/05/09 04:17:22;;;;;;;14.40;6.97;;;;;;;;;;5085287;28;20043;-71
2023/05/09 04:19:48;;;;;;;11.70;6.70;;;;;;;;;;5072657;28;20764;-71
2023/05/09 04:22:13;;;;;;;12.90;6.75;;;;;;;;;;5081430;28;20029;-71
2023/05/09 04:24:38;;;;;;;11.90;6.65;;;;;;;;;;5084787;28;20024;-71
2023/05/09 04:27:04;;;;;;;12.95;6.88;;;;;;;;;;5085256;28;20024;-71
2023/05/09 04:29:30;;;;;;;14.88;7.18;;;;;;;;;;5083591;28;20043;-71
2023/05/09 04:31:55;;;;;;;16.50;6.88;;;;;;;;;;5084139;28;20038;-71
2023/05/09 04:34:20;;;;;;;14.40;7.57;;;;;;;;;;5080000;28;20085;-71
2023/05/09 04:36:46;;;;;;;13.32;7.40;;;;;;;;;;5084479;28;20032;-71
2023/05/09 04:39:11;;;;;;;12.50;6.82;;;;;;;;;;5084775;28;20039;-71
2023/05/09 04:41:37;;;;;;;14.10;7.30;;;;;;;;;;5082999;28;20525;-71
2023/05/09 04:44:02;;;;;;;12.35;6.90;;;;;;;;;;5083385;28;20039;-71
2023/05/09 04:46:28;;;;;;;14.93;6.93;;;;;;;;;;5077788;28;20040;-71
2023/05/09 04:48:53;;;;;;;16.33;7.40;;;;;;;;;;5082928;28;20413;-71
2023/05/09 04:51:18;;;;;;;13.80;7.30;;;;;;;;;;5084420;28;20030;-71
2023/05/09 04:53:44;;;;;;;14.13;7.00;;;;;;;;;;5082936;28;20478;-71
2023/05/09 04:56:09;;;;;;;13.52;6.93;;;;;;;;;;5075283;28;20043;-71
2023/05/09 04:58:37;;;;;;;10.52;6.43;;;;;;;;;;5082260;28;20122;-71
2023/05/09 05:01:04;;;;;;;13.80;7.47;;;;;;;;;;5083986;28;20051;-71
2023/05/09 05:03:29;;;;;;;13.90;7.45;;;;;;;;;;5084081;28;20054;-71
2023/05/09 05:05:55;;;;;;;12.63;7.13;;;;;;;;;;5085235;28;20508;-71
2023/05/09 05:08:20;;;;;;;12.13;7.03;;;;;;;;;;5084404;28;20085;-69
2023/05/09 05:10:46;;;;;;;11.65;6.82;;;;;;;;;;5084213;28;20127;-71
2023/05/09 05:13:11;;;;;;;13.98;7.50;;;;;;;;;;5083970;28;20429;-71
2023/05/09 05:15:37;;;;;;;11.80;6.53;;;;;;;;;;5086601;28;20024;-70
2023/05/09 05:18:02;;;;;;;12.45;7.68;;;;;;;;;;5094399;28;20212;-71
2023/05/09 05:20:28;;;;;;;11.95;6.85;;;;;;;;;;5080295;28;20031;-70
2023/05/09 05:22:53;;;;;;;12.90;7.00;;;;;;;;;;5078187;28;21090;-71
2023/05/09 05:25:19;;;;;;;14.10;6.82;;;;;;;;;;5083799;28;20115;-71
2023/05/09 05:27:45;;;;;;;11.60;7.07;;;;;;;;;;5073616;28;20032;-71
2023/05/09 05:30:11;;;;;;;9.93;6.35;;;;;;;;;;5067038;28;20028;-71
2023/05/09 05:32:36;;;;;;;12.13;7.20;;;;;;;;;;5077910;28;20028;-71
2023/05/09 05:35:03;;;;;;;11.18;7.25;;;;;;;;;;5072953;28;20044;-71
2023/05/09 05:37:29;;;;;;;14.15;7.63;;;;;;;;;;5081382;28;20037;-71
2023/05/09 05:39:54;;;;;;;13.10;7.00;;;;;;;;;;5071004;28;20035;-71
2023/05/09 05:42:20;;;;;;;12.48;7.53;;;;;;;;;;5069750;28;20031;-71
2023/05/09 05:44:45;;;;;;;13.10;7.45;;;;;;;;;;5086189;28;20039;-71
2023/05/09 05:47:10;;;;;;;13.32;7.10;;;;;;;;;;5081941;28;20468;-70
2023/05/09 05:49:36;;;;;;;11.27;7.00;;;;;;;;;;5080856;28;20050;-71
2023/05/09 05:52:01;;;;;;;12.98;6.68;;;;;;;;;;5072287;28;20044;-71
2023/05/09 05:54:27;;;;;;;13.38;7.13;;;;;;;;;;5068943;28;20024;-71
2023/05/09 05:56:52;;;;;;;11.23;7.00;;;;;;;;;;5068874;28;20072;-71
2023/05/09 05:59:17;;;;;;;11.60;6.75;;;;;;;;;;5065625;28;20056;-71
2023/05/09 06:01:43;;;;;;;12.52;6.93;;;;;;;;;;5078356;28;20033;-71
2023/05/09 06:04:08;;;;;;;13.13;7.18;;;;;;;;;;5084731;28;20044;-71
2023/05/09 06:06:33;;;;;;;11.80;6.70;;;;;;;;;;5068937;28;20409;-70
2023/05/09 06:08:59;;;;;;;12.93;5.93;;;;;;;;;;5077481;28;20027;-71
2023/05/09 06:11:25;;;;;;;12.68;6.72;;;;;;;;;;5083018;28;20505;-70
2023/05/09 06:13:50;;;;;;;11.35;6.50;;;;;;;;;;5085392;28;20975;-70
2023/05/09 06:16:16;;;;;;;12.15;6.78;;;;;;;;;;5079798;28;20519;-70
2023/05/09 06:18:41;;;;;;;13.05;6.82;;;;;;;;;;5075433;28;20043;-70
2023/05/09 06:21:06;;;;;;;11.55;6.47;;;;;;;;;;5080561;28;20028;-70
2023/05/09 06:23:32;;;;;;;12.20;6.88;;;;;;;;;;5084552;28;20135;-70
2023/05/09 06:25:57;;;;;;;10.85;6.30;;;;;;;;;;5086073;28;20028;-70
2023/05/09 06:28:23;;;;;;;12.18;6.45;;;;;;;;;;5085765;28;20111;-70
2023/05/09 06:30:48;;;;;;;11.27;6.60;;;;;;;;;;5086138;28;20104;-71
2023/05/09 06:33:14;;;;;;;11.82;6.38;;;;;;;;;;5086407;28;20055;-70
2023/05/09 06:35:39;;;;;;;11.77;6.30;;;;;;;;;;5083445;28;20020;-69
2023/05/09 06:38:05;;;;;;;12.43;6.68;;;;;;;;;;5087693;28;20028;-70
2023/05/09 06:40:31;;;;;;;10.27;6.50;;;;;;;;;;5091409;28;20055;-70
2023/05/09 06:42:56;;;;;;;10.43;6.05;;;;;;;;;;5093153;28;20421;-70
2023/05/09 06:45:22;;;;;;;10.70;6.03;;;;;;;;;;5087482;28;20084;-70
2023/05/09 06:47:47;;;;;;;10.02;5.95;;;;;;;;;;5082993;28;20076;-70
2023/05/09 06:50:12;;;;;;;11.20;5.72;;;;;;;;;;5085865;28;20089;-70
2023/05/09 06:52:38;;;;;;;9.02;5.32;;;;;;;;;;5085789;28;20544;-70
2023/05/09 06:55:03;;;;;;;15.10;6.10;;;;;;;;;;5080884;28;20039;-70
2023/05/09 06:57:29;;;;;;;10.30;5.55;;;;;;;;;;5081627;28;20115;-70
2023/05/09 06:59:54;;;;;;;9.73;5.60;;;;;;;;;;5086451;28;20540;-71
2023/05/09 07:02:20;;;;;;;12.57;5.90;;;;;;;;;;5086067;28;20743;-71
2023/05/09 07:04:45;;;;;;;10.00;5.68;;;;;;;;;;5085921;28;20032;-70
2023/05/09 07:07:10;;;;;;;12.88;5.55;;;;;;;;;;5086616;28;20750;-71
2023/05/09 07:09:36;;;;;;;9.07;5.15;;;;;;;;;;5079401;28;20507;-70
2023/05/09 07:12:01;;;;;;;10.05;5.63;;;;;;;;;;5086090;28;20108;-71
2023/05/09 07:14:27;;;;;;;9.25;5.38;;;;;;;;;;5086096;28;20043;-71
2023/05/09 07:16:52;;;;;;;9.30;5.70;;;;;;;;;;5086416;28;20028;-70
2023/05/09 07:19:17;;;;;;;10.00;4.60;;;;;;;;;;5075699;28;20085;-71
2023/05/09 07:21:43;;;;;;;11.63;5.72;;;;;;;;;;5083611;28;20035;-70
2023/05/09 07:24:08;;;;;;;9.35;5.45;;;;;;;;;;5075779;28;20024;-71
2023/05/09 07:26:34;;;;;;;9.98;5.43;;;;;;;;;;5085865;28;20031;-70
2023/05/09 07:29:00;;;;;;;10.00;5.50;;;;;;;;;;5085583;28;20131;-70
2023/05/09 07:31:25;;;;;;;9.13;5.43;;;;;;;;;;5085932;28;20123;-71
2023/05/09 07:33:51;;;;;;;7.78;5.22;;;;;;;;;;5083802;28;20059;-71
2023/05/09 07:36:16;;;;;;;11.98;5.40;;;;;;;;;;5085439;28;20397;-71
2023/05/09 07:38:42;;;;;;;10.23;5.43;;;;;;;;;;5085208;28;20098;-70
2023/05/09 07:41:07;;;;;;;9.10;4.78;;;;;;;;;;5081123;28;20082;-71
2023/05/09 07:43:32;;;;;;;9.40;5.15;;;;;;;;;;5085002;28;20103;-70
2023/05/09 07:45:58;;;;;;;7.72;4.70;;;;;;;;;;5086206;28;20027;-70
2023/05/09 07:48:23;;;;;;;7.13;4.90;;;;;;;;;;5078495;28;20047;-71
2023/05/09 07:50:49;;;;;;;7.70;4.82;;;;;;;;;;5085787;28;20055;-71
2023/05/09 07:53:14;;;;;;;7.32;4.70;;;;;;;;;;5085641;28;20082;-71
2023/05/09 07:55:40;;;;;;;7.05;4.82;;;;;;;;;;5084814;28;20043;-71
2023/05/09 07:58:05;;;;;;;8.70;4.70;;;;;;;;;;5085504;28;20058;-70
2023/05/09 08:00:30;;;;;;;7.15;4.35;;;;;;;;;;5086130;28;20043;-70
2023/05/09 08:02:56;;;;;;;6.50;4.30;;;;;;;;;;5082064;28;20044;-70
2023/05/09 08:05:21;;;;;;;6.63;4.47;;;;;;;;;;5073049;28;20568;-70
2023/05/09 08:07:47;;;;;;;8.02;5.15;;;;;;;;;;5072848;28;20109;-70
2023/05/09 08:10:12;;;;;;;7.53;4.40;;;;;;;;;;5064241;28;20036;-70
2023/05/09 08:12:38;;;;;;;9.73;5.10;;;;;;;;;;5078612;28;20532;-71
2023/05/09 08:15:04;;;;;;;7.97;5.10;;;;;;;;;;5079156;28;20039;-70
2023/05/09 08:17:29;;;;;;;8.35;4.63;;;;;;;;;;5083916;28;20164;-70
2023/05/09 08:19:55;;;;;;;6.72;4.32;;;;;;;;;;5084265;28;20466;-70
2023/05/09 08:22:21;;;;;;;7.43;4.68;;;;;;;;;;5084282;28;20028;-70
2023/05/09 08:24:46;;;;;;;6.75;4.22;;;;;;;;;;5082877;28;20031;-71
2023/05/09 08:27:12;;;;;;;8.65;4.65;;;;;;;;;;5084649;28;20031;-70
2023/05/09 08:29:41;;;;;;;9.38;4.55;;;;;;;;;;5084712;28;20016;-70
2023/05/09 08:32:07;;;;;;;7.50;4.47;;;;;;;;;;5082986;28;20032;-71
2023/05/09 08:34:33;;;;;;;9.50;5.10;;;;;;;;;;5084647;28;20064;-71
2023/05/09 08:37:02;;;;;;;8.70;5.60;;;;;;;;;;5084492;28;20028;-71
2023/05/09 08:39:29;;;;;;;8.57;4.60;;;;;;;;;;5071194;28;20078;-70
2023/05/09 08:41:58;;;;;;;9.57;5.28;;;;;;;;;;5085103;28;20378;-71
2023/05/09 08:44:24;;;;;;;6.78;4.22;;;;;;;;;;5076507;28;20032;-70
2023/05/09 08:46:53;;;;;;;9.18;4.90;;;;;;;;;;5081969;28;20564;-70
2023/05/09 08:49:22;;;;;;;7.82;5.38;;;;;;;;;;5083726;28;20044;-70
2023/05/09 08:51:48;;;;;;;6.60;3.88;;;;;;;;;;5083095;28;20579;-70
2023/05/09 08:54:14;;;;;;;7.63;4.22;;;;;;;;;;5074929;28;20103;-70
2023/05/09 08:56:40;;;;;;;8.57;4.13;;;;;;;;;;5069527;28;20142;-71
2023/05/09 08:59:06;;;;;;;7.55;4.32;;;;;;;;;;5075727;28;20059;-70
2023/05/09 09:01:35;;;;;;;6.78;4.40;;;;;;;;;;5083717;28;20032;-71
2023/05/09 09:04:04;;;;;;;6.40;4.00;;;;;;;;;;5084578;28;20040;-70
2023/05/09 09:06:32;;;;;;;7.13;4.00;;;;;;;;;;5078737;28;20063;-70
2023/05/09 09:08:58;;;;;;;7.10;3.88;;;;;;;;;;5077523;28;20051;-71
2023/05/09 09:11:23;;;;;;;10.05;5.25;;;;;;;;;;5081097;28;20028;-70
2023/05/09 09:13:51;;;;;;;10.70;5.70;;;;;;;;;;5079467;28;20028;-70
2023/05/09 09:16:19;;;;;;;6.82;4.25;;;;;;;;;;5084375;28;20028;-70
2023/05/09 09:18:45;;;;;;;7.15;4.07;;;;;;;;;;5086296;28;20487;-71
2023/05/09 09:21:14;;;;;;;8.57;4.50;;;;;;;;;;5088414;28;20500;-70
2023/05/09 09:23:41;;;;;;;6.50;4.40;;;;;;;;;;5086169;28;20366;-70
2023/05/09 09:26:07;;;;;;;7.75;3.72;;;;;;;;;;5085536;28;20033;-70
2023/05/09 09:28:33;;;;;;;6.63;4.50;;;;;;;;;;5094886;28;20055;-70
2023/05/09 09:30:59;;;;;;;7.60;4.57;;;;;;;;;;5089528;28;20036;-71
2023/05/09 09:33:25;;;;;;;7.82;4.75;;;;;;;;;;5088911;28;20024;-70
2023/05/09 09:35:52;;;;;;;10.10;4.75;;;;;;;;;;5088499;28;20028;-71
2023/05/09 09:38:19;;;;;;;7.93;4.50;;;;;;;;;;5082857;28;20410;-71
2023/05/09 09:40:51;;;;;;;7.22;4.78;;;;;;;;;;5078051;28;20024;-71
2023/05/09 09:43:16;;;;;;;6.93;4.85;;;;;;;;;;5086389;28;20097;-70
2023/05/09 09:45:42;;;;;;;9.43;4.60;;;;;;;;;;5087774;28;20501;-71
2023/05/09 09:48:07;;;;;;;7.85;5.38;;;;;;;;;;5086349;28;20051;-71
2023/05/09 09:50:32;;;;;;;7.68;4.75;;;;;;;;;;5086164;28;20417;-71
2023/05/09 09:52:59;;;;;;;9.43;4.80;;;;;;;;;;5086031;28;20476;-71
2023/05/09 09:55:25;;;;;;;7.22;4.40;;;;;;;;;;5070141;28;20997;-71
2023/05/09 09:57:51;;;;;;;6.88;4.80;;;;;;;;;;5084259;28;20032;-71
2023/05/09 10:00:18;;;;;;;6.70;3.95;;;;;;;;;;5087042;28;20039;-71
2023/05/09 10:02:47;;;;;;;4.90;3.25;;;;;;;;;;5078811;28;20012;-71
2023/05/09 10:05:18;;;;;;;5.80;2.88;;;;;;;;;;5080466;28;20467;-71
2023/05/09 10:07:44;;;;;;;6.28;2.75;;;;;;;;;;5079367;28;20035;-71
2023/05/09 10:10:09;;;;;;;3.95;2.55;;;;;;;;;;5086426;28;20031;-70
2023/05/09 10:12:39;;;;;;;5.07;2.63;;;;;;;;;;5084805;28;20029;-70
2023/05/09 10:15:09;;;;;;;4.70;2.25;;;;;;;;;;5083043;28;20481;-70
2023/05/09 10:17:35;;;;;;;5.10;2.70;;;;;;;;;;5087234;28;20103;-70
2023/05/09 10:20:03;;;;;;;4.30;2.53;;;;;;;;;;5086490;28;20127;-70
2023/05/09 10:22:29;;;;;;;6.00;2.80;;;;;;;;;;5085241;28;20035;-70
2023/05/09 10:24:58;;;;;;;11.75;3.13;;;;;;;;;;5085334;28;20586;-71
2023/05/09 10:27:26;;;;;;;7.45;3.38;;;;;;;;;;5075237;28;20517;-70
2023/05/09 10:30:05;;;;;;;4.15;2.65;;;;;;;;;;5080758;28;20031;-71
2023/05/09 10:32:46;;;;;;;3.42;2.60;;;;;;;;;;5086255;28;20036;-70
2023/05/09 10:35:12;;;;;;;4.53;3.10;;;;;;;;;;5086811;28;20043;-70
2023/05/09 10:37:38;;;;;;;6.75;3.20;;;;;;;;;;5086297;28;20050;-70
2023/05/09 10:40:05;;;;;;;5.32;3.40;;;;;;;;;;5070873;28;21219;-70
2023/05/09 10:42:30;;;;;;;6.82;3.70;;;;;;;;;;5078319;28;20855;-70
2023/05/09 10:44:56;;;;;;;8.45;3.58;;;;;;;;;;5084711;28;20121;-70
2023/05/09 10:47:25;;;;;;;7.45;3.75;;;;;;;;;;5087219;28;20036;-71
2023/05/09 10:49:51;;;;;;;7.03;3.92;;;;;;;;;;5088281;28;20035;-70
2023/05/09 10:52:19;;;;;;;7.38;3.83;;;;;;;;;;5093301;28;20032;-71
2023/05/09 10:54:58;;;;;;;6.45;3.72;;;;;;;;;;5085335;28;20078;-70
2023/05/09 10:57:24;;;;;;;7.47;4.10;;;;;;;;;;5086619;28;20028;-71
2023/05/09 10:59:50;;;;;;;7.47;3.92;;;;;;;;;;5086285;28;20051;-70
2023/05/09 11:02:18;;;;;;;5.82;3.55;;;;;;;;;;5085661;28;20032;-70
2023/05/09 11:04:44;;;;;;;6.32;3.38;;;;;;;;;;5076942;28;20036;-71
2023/05/09 11:07:26;;;;;;;5.25;2.70;;;;;;;;;;5078442;28;20113;-70
2023/05/09 11:10:05;;;;;;;6.45;2.47;;;;;;;;;;5077592;28;20037;-70
2023/05/09 11:12:31;;;;;;;1.98;1.45;;;;;;;;;;5076473;28;20028;-70
2023/05/09 11:15:06;;;;;;;3.60;1.60;;;;;;;;;;5084742;28;20458;-71
2023/05/09 11:17:37;;;;;;;3.80;1.85;;;;;;;;;;5073888;28;20032;-70
2023/05/09 11:20:06;;;;;;;2.22;1.30;;;;;;;;;;5073945;28;20742;-71
2023/05/09 11:22:43;;;;;;;2.75;1.50;;;;;;;;;;5074661;28;20127;-70
2023/05/09 11:25:15;;;;;;;2.65;1.85;;;;;;;;;;5081744;28;20043;-70
2023/05/09 11:27:47;;;;;;;3.00;1.87;;;;;;;;;;5086006;28;20036;-71
2023/05/09 11:30:17;;;;;;;3.92;1.80;;;;;;;;;;5085607;28;20025;-71
2023/05/09 11:32:43;;;;;;;4.18;2.53;;;;;;;;;;5082008;28;20530;-70
2023/05/09 11:35:13;;;;;;;10.05;2.70;;;;;;;;;;5067838;28;20067;-71
2023/05/09 11:38:03;;;;;;;5.70;2.58;;;;;;;;;;5085163;28;20035;-71
2023/05/09 11:40:31;;;;;;;7.50;2.60;;;;;;;;;;5088301;28;20080;-71
2023/05/09 11:42:58;;;;;;;6.75;2.90;;;;;;;;;;5082525;28;20058;-71
2023/05/09 11:45:28;;;;;;;5.75;2.72;;;;;;;;;;5083736;28;20088;-70
2023/05/09 11:47:55;;;;;;;5.68;2.83;;;;;;;;;;5083349;28;20027;-70
2023/05/09 11:50:21;;;;;;;6.57;3.15;;;;;;;;;;5087767;28;20135;-71
2023/05/09 11:52:48;;;;;;;3.67;1.83;;;;;;;;;;5070706;28;20571;-71
2023/05/09 11:55:16;;;;;;;5.53;2.50;;;;;;;;;;5074320;28;20047;-70
2023/05/09 11:57:49;;;;;;;4.45;2.17;;;;;;;;;;5067700;28;20112;-70
2023/05/09 12:00:19;;;;;;;;;;;;;;;;;;5066837;28;20052;-70
2023/05/09 12:02:45;;;;;;;5.22;2.65;;;;;;;;;;5080765;28;19911;-70
2023/05/09 12:05:16;;;;;;;6.28;2.70;;;;;;;;;;5076122;28;20518;-71
2023/05/09 12:07:42;;;;;;;6.35;3.10;;;;;;;;;;5083806;28;20085;-70
2023/05/09 12:10:08;;;;;;;4.75;2.20;;;;;;;;;;5085128;28;20032;-70
2023/05/09 12:12:45;;;;;;;6.30;2.40;;;;;;;;;;5081795;28;20047;-70
2023/05/09 12:15:12;;;;;;;4.18;1.98;;;;;;;;;;5083212;28;20023;-70
2023/05/09 12:17:38;;;;;;;4.85;2.05;;;;;;;;;;5090053;28;20020;-71
2023/05/09 12:20:04;;;;;;;4.05;1.63;;;;;;;;;;5082195;28;20207;-70
2023/05/09 12:22:30;;;;;;;5.70;2.35;;;;;;;;;;5075113;28;20043;-71
2023/05/09 12:24:57;;;;;;;6.70;2.00;;;;;;;;;;5073652;28;20043;-70
2023/05/09 12:27:22;;;;;;;5.68;2.40;;;;;;;;;;5077552;28;20055;-70
2023/05/09 12:29:48;;;;;;;6.05;2.50;;;;;;;;;;5078219;28;20043;-71
2023/05/09 12:32:17;;;;;;;7.75;2.80;;;;;;;;;;5073714;28;20036;-70
2023/05/09 12:34:44;;;;;;;3.25;2.38;;;;;;;;;;5070858;28;20046;-70
2023/05/09 12:37:17;;;;;;;4.45;2.40;;;;;;;;;;5077039;28;20041;-70
2023/05/09 12:40:06;;;;;;;4.68;2.30;;;;;;;;;;5067424;28;20040;-70
2023/05/09 12:42:33;;;;;;;5.55;1.90;;;;;;;;;;5072046;28;20126;-70
2023/05/09 12:45:00;;;;;;;5.60;2.10;;;;;;;;;;5075750;28;20027;-70
2023/05/09 12:47:30;;;;;;;6.38;2.38;;;;;;;;;;5084547;28;20032;-72
2023/05/09 12:50:00;;;;;;;4.72;2.33;;;;;;;;;;5085990;28;20039;-70
2023/05/09 12:52:33;;;;;;;5.20;2.40;;;;;;;;;;5079348;28;20055;-70
2023/05/09 12:55:07;;;;;;;8.68;2.08;;;;;;;;;;5072068;28;20035;-70
2023/05/09 12:57:32;;;;;;;6.45;3.38;;;;;;;;;;5065574;28;20832;-70
2023/05/09 12:59:58;;;;;;;5.50;3.00;;;;;;;;;;5066307;28;20079;-70
2023/05/09 13:02:27;;;;;;;4.50;1.98;;;;;;;;;;5065519;28;20044;-70
2023/05/09 13:05:09;;;;;;;3.67;2.03;;;;;;;;;;5075449;28;20025;-70
2023/05/09 13:07:42;;;;;;;3.83;1.70;;;;;;;;;;5072371;28;20029;-71
2023/05/09 13:10:17;;;;;;;4.70;1.48;;;;;;;;;;5076010;28;20135;-72
2023/05/09 13:12:47;;;;;;;1.95;1.42;;;;;;;;;;5077698;28;20051;-70
2023/05/09 13:15:14;;;;;;;2.55;1.40;;;;;;;;;;5082360;28;20051;-70
2023/05/09 13:17:39;;;;;;;2.03;1.15;;;;;;;;;;5083165;28;20460;-70
2023/05/09 13:20:05;;;;;;;3.88;1.15;;;;;;;;;;5084436;28;20072;-70
2023/05/09 13:22:31;;;;;;;3.85;0.85;;;;;;;;;;5084386;28;20032;-71
2023/05/09 13:24:57;;;;;;;1.13;0.95;;;;;;;;;;5084095;28;20477;-71
2023/05/09 13:27:22;;;;;;;1.35;0.90;;;;;;;;;;5084258;28;20070;-71
2023/05/09 13:29:48;;;;;;;0.75;0.65;;;;;;;;;;5077088;28;20066;-71
2023/05/09 13:32:13;;;;;;;0.65;0.65;;;;;;;;;;5076180;28;20042;-70
2023/05/09 13:34:39;;;;;;;1.15;0.70;;;;;;;;;;5085091;28;20028;-71
2023/05/09 13:37:04;;;;;;;0.73;0.68;;;;;;;;;;5087132;28;20024;-71
2023/05/09 13:39:30;;;;;;;1.52;0.88;;;;;;;;;;5083625;28;20085;-70
2023/05/09 13:41:56;;;;;;;1.08;0.90;;;;;;;;;;5081714;28;20024;-71
2023/05/09 13:44:22;;;;;;;1.08;0.80;;;;;;;;;;5083089;28;20579;-70
2023/05/09 13:46:48;;;;;;;1.02;0.80;;;;;;;;;;5084226;28;20058;-70
2023/05/09 13:49:13;;;;;;;0.73;0.73;;;;;;;;;;5082718;28;20475;-70
2023/05/09 13:51:39;;;;;;;1.02;0.90;;;;;;;;;;5084095;28;20040;-70
2023/05/09 13:54:08;;;;;;;1.25;1.05;;;;;;;;;;5076628;28;20440;-70
2023/05/09 13:56:33;;;;;;;1.00;0.90;;;;;;;;;;5083210;28;20504;-70
2023/05/09 13:58:59;;;;;;;1.05;0.90;;;;;;;;;;5089094;28;20039;-70
2023/05/09 14:01:24;;;;;;;1.48;0.98;;;;;;;;;;5085620;28;20038;-70
2023/05/09 14:03:49;;;;;;;1.48;1.05;;;;;;;;;;5073464;28;20040;-70
2023/05/09 14:06:15;;;;;;;1.25;0.85;;;;;;;;;;5086526;28;20123;-70
2023/05/09 14:08:40;;;;;;;1.40;1.13;;;;;;;;;;5087136;28;20032;-71
2023/05/09 14:11:07;;;;;;;3.33;1.30;;;;;;;;;;5080724;28;20035;-70
2023/05/09 14:13:33;;;;;;;0.90;0.90;;;;;;;;;;5087218;28;20085;-71
2023/05/09 14:15:58;;;;;;;1.98;1.40;;;;;;;;;;5088312;28;20024;-71
2023/05/09 14:18:24;;;;;;;1.98;1.30;;;;;;;;;;5081938;28;20438;-70
2023/05/09 14:20:49;;;;;;;1.50;1.10;;;;;;;;;;5083806;28;20038;-71
2023/05/09 14:23:15;;;;;;;2.50;1.40;;;;;;;;;;5087129;28;20040;-71
2023/05/09 14:25:40;;;;;;;2.03;1.30;;;;;;;;;;5081025;28;20032;-71
2023/05/09 14:28:08;;;;;;;2.20;1.30;;;;;;;;;;5083729;28;20043;-70
2023/05/09 14:30:33;;;;;;;2.45;1.48;;;;;;;;;;5085273;28;20039;-71
2023/05/09 14:32:59;;;;;;;2.00;1.50;;;;;;;;;;5087287;28;20020;-71
2023/05/09 14:35:24;;;;;;;1.50;1.20;;;;;;;;;;5085181;28;20028;-71